Time;durP1;ratioP1;P1;durP2;ratioP2;P2;SDS_P1;SDS_P2;PMS_P1;PMS_P2;Temp;Humidity;BMP_temperature;BMP_pressure;BME280_temperature;BME280_humidity;BME280_pressure;Samples;Min_cycle;Max_cycle;Signal;HPM_P1;HPM_P2
2021/10/05 00:01:10;;;;;;;13.27;8.93;;;359.10;2329.60;;;;;;5034279;28;20033;-70
2021/10/05 00:03:36;;;;;;;16.65;8.45;;;359.10;2329.60;;;;;;5045798;28;20044;-70
2021/10/05 00:06:02;;;;;;;11.98;7.93;;;359.10;2329.60;;;;;;5044133;28;20488;-70
2021/10/05 00:08:28;;;;;;;10.75;8.20;;;359.20;2329.60;;;;;;5050373;28;20426;-70
2021/10/05 00:10:55;;;;;;;10.80;8.18;;;359.20;2329.60;;;;;;5054180;28;20083;-70
2021/10/05 00:13:21;;;;;;;11.05;7.07;;;359.20;2329.60;;;;;;5048175;28;20033;-70
2021/10/05 00:15:47;;;;;;;12.48;8.10;;;359.10;2329.60;;;;;;5047301;28;20712;-71
2021/10/05 00:18:13;;;;;;;12.23;7.65;;;359.20;2329.60;;;;;;5053703;28;20025;-70
2021/10/05 00:20:39;;;;;;;13.68;8.52;;;359.10;2329.60;;;;;;5054262;28;20021;-70
2021/10/05 00:23:04;;;;;;;12.52;7.97;;;359.10;2329.60;;;;;;5046760;28;20036;-70
2021/10/05 00:25:30;;;;;;;9.93;6.72;;;359.20;2329.60;;;;;;5054449;28;20037;-70
2021/10/05 00:27:56;;;;;;;11.63;7.53;;;359.10;2329.60;;;;;;5036924;28;20025;-70
2021/10/05 00:30:21;;;;;;;17.55;8.05;;;359.10;2329.60;;;;;;5036341;28;20120;-70
2021/10/05 00:32:47;;;;;;;12.13;7.80;;;359.10;2329.60;;;;;;5054406;28;20013;-70
2021/10/05 00:35:13;;;;;;;14.65;8.45;;;359.10;2329.60;;;;;;5054255;28;20468;-70
2021/10/05 00:37:39;;;;;;;16.40;8.00;;;359.10;2329.60;;;;;;5036096;28;20029;-70
2021/10/05 00:40:06;;;;;;;15.80;7.85;;;359.10;2329.60;;;;;;5054299;28;20420;-70
2021/10/05 00:42:32;;;;;;;11.10;7.10;;;359.10;2329.60;;;;;;5036043;28;20506;-70
2021/10/05 00:44:58;;;;;;;16.13;7.20;;;359.10;2329.60;;;;;;5035558;28;20033;-70
2021/10/05 00:47:24;;;;;;;10.45;7.68;;;359.00;2329.60;;;;;;5053356;28;20036;-70
2021/10/05 00:49:50;;;;;;;11.13;7.05;;;359.00;2329.60;;;;;;5054288;28;20021;-70
2021/10/05 00:52:17;;;;;;;11.73;8.10;;;359.00;2329.60;;;;;;5054055;28;20067;-70
2021/10/05 00:54:44;;;;;;;16.33;8.30;;;359.00;2329.60;;;;;;5054151;28;20470;-70
2021/10/05 00:57:11;;;;;;;12.32;8.20;;;359.00;2329.60;;;;;;5035940;28;20025;-70
2021/10/05 00:59:37;;;;;;;9.98;7.72;;;359.00;2329.60;;;;;;5036278;28;20044;-70
2021/10/05 01:02:10;;;;;;;12.02;8.30;;;358.90;2329.60;;;;;;5053824;28;20102;-70
2021/10/05 01:04:36;;;;;;;14.00;9.20;;;358.90;2329.60;;;;;;5035083;28;20509;-70
2021/10/05 01:07:08;;;;;;;15.35;8.98;;;359.00;2329.60;;;;;;5053595;28;20135;-70
2021/10/05 01:09:35;;;;;;;23.75;10.55;;;358.90;2329.60;;;;;;5053222;28;20108;-70
2021/10/05 01:12:03;;;;;;;13.65;9.98;;;358.90;2329.60;;;;;;5053532;28;20021;-70
2021/10/05 01:14:29;;;;;;;18.77;10.43;;;358.80;2329.60;;;;;;5052696;28;20490;-70
2021/10/05 01:16:58;;;;;;;19.08;9.57;;;358.80;2329.60;;;;;;5053127;28;20040;-70
2021/10/05 01:19:24;;;;;;;15.88;10.52;;;358.70;2329.60;;;;;;5053379;28;20051;-69
2021/10/05 01:21:50;;;;;;;15.30;10.35;;;358.80;2329.60;;;;;;5034251;28;20021;-71
2021/10/05 01:24:19;;;;;;;14.05;10.65;;;358.70;2329.60;;;;;;5035740;28;20051;-70
2021/10/05 01:26:46;;;;;;;19.73;11.43;;;358.60;2329.60;;;;;;5053384;28;20017;-70
2021/10/05 01:29:23;;;;;;;15.60;8.75;;;358.60;2329.60;;;;;;5053210;28;20033;-70
2021/10/05 01:31:53;;;;;;;13.55;9.77;;;358.60;2329.60;;;;;;5052812;28;20397;-70
2021/10/05 01:34:22;;;;;;;13.35;8.63;;;358.60;2329.60;;;;;;5053096;28;20106;-70
2021/10/05 01:36:49;;;;;;;14.95;8.68;;;358.60;2329.60;;;;;;5052970;28;20025;-70
2021/10/05 01:39:27;;;;;;;14.80;9.13;;;358.50;2329.60;;;;;;5052944;28;20037;-70
2021/10/05 01:41:56;;;;;;;12.65;8.93;;;358.50;2329.60;;;;;;5035171;28;20029;-70
2021/10/05 01:44:22;;;;;;;11.70;8.98;;;358.40;2329.60;;;;;;5052781;28;20063;-70
2021/10/05 01:46:50;;;;;;;14.77;9.52;;;358.50;2329.60;;;;;;5052760;28;20037;-70
2021/10/05 01:49:20;;;;;;;16.55;9.50;;;358.40;2329.60;;;;;;5034876;28;20029;-70
2021/10/05 01:51:46;;;;;;;12.35;9.30;;;358.40;2329.60;;;;;;5050437;28;20025;-70
2021/10/05 01:54:12;;;;;;;16.77;9.55;;;358.40;2329.60;;;;;;5052425;28;20017;-70
2021/10/05 01:56:38;;;;;;;17.88;10.07;;;358.40;2329.60;;;;;;5052389;28;20091;-70
2021/10/05 01:59:04;;;;;;;13.57;9.32;;;358.50;2329.60;;;;;;5052523;28;20071;-70
2021/10/05 02:01:30;;;;;;;15.70;9.07;;;358.50;2329.60;;;;;;5052516;28;20025;-70
2021/10/05 02:03:56;;;;;;;15.88;10.65;;;358.50;2329.60;;;;;;5034858;28;20031;-70
2021/10/05 02:06:25;;;;;;;14.68;9.35;;;358.40;2329.60;;;;;;5052430;28;20645;-70
2021/10/05 02:08:51;;;;;;;15.93;9.90;;;358.40;2329.60;;;;;;5052640;28;20032;-70
2021/10/05 02:11:16;;;;;;;15.70;10.25;;;358.40;2329.60;;;;;;5033976;28;20756;-70
2021/10/05 02:13:42;;;;;;;12.45;9.32;;;358.40;2329.60;;;;;;5052383;28;20481;-70
2021/10/05 02:16:09;;;;;;;14.77;9.70;;;333.70;2329.60;;;;;;5051777;28;20044;-70
2021/10/05 02:18:34;;;;;;;18.10;10.10;;;333.70;2329.60;;;;;;5034297;28;20055;-71
2021/10/05 02:21:00;;;;;;;17.80;9.90;;;333.70;2329.60;;;;;;5052031;28;20057;-70
2021/10/05 02:26:11;;;;;;;22.25;12.65;;;333.60;2329.60;;;;;;5051812;28;20559;-69
2021/10/05 02:28:36;;;;;;;13.75;10.50;;;333.60;2329.60;;;;;;5033187;28;20148;-69
2021/10/05 02:31:02;;;;;;;16.63;10.23;;;333.70;2329.60;;;;;;5051673;28;20029;-70
2021/10/05 02:33:30;;;;;;;26.27;11.43;;;333.60;2329.60;;;;;;5051031;28;20048;-70
2021/10/05 02:35:55;;;;;;;18.20;11.10;;;333.60;2329.60;;;;;;5051588;28;20013;-70
2021/10/05 02:38:21;;;;;;;17.02;11.40;;;333.60;2329.60;;;;;;5051794;28;20031;-70
2021/10/05 02:40:47;;;;;;;16.10;11.15;;;333.50;2329.60;;;;;;5051848;28;20466;-70
2021/10/05 02:43:12;;;;;;;15.93;11.65;;;333.50;2329.60;;;;;;5051996;28;20096;-70
2021/10/05 02:45:38;;;;;;;16.77;11.02;;;333.50;2329.60;;;;;;5033376;28;20033;-70
2021/10/05 02:48:04;;;;;;;16.15;12.02;;;333.50;2329.60;;;;;;5051966;28;20104;-70
2021/10/05 02:50:30;;;;;;;19.00;11.02;;;333.50;2329.60;;;;;;5051479;28;20031;-70
2021/10/05 02:52:56;;;;;;;16.75;11.13;;;333.60;2329.60;;;;;;5050616;28;20104;-70
2021/10/05 02:55:22;;;;;;;16.25;11.82;;;333.60;2329.60;;;;;;5051534;28;20116;-70
2021/10/05 02:57:47;;;;;;;16.45;11.98;;;333.60;2329.60;;;;;;5051551;28;20029;-69
2021/10/05 03:00:14;;;;;;;15.45;11.98;;;333.60;2329.60;;;;;;5051340;28;20032;-70
2021/10/05 03:02:40;;;;;;;16.15;11.98;;;333.60;2329.60;;;;;;5051112;28;20458;-70
2021/10/05 03:05:06;;;;;;;12.90;11.25;;;333.60;2329.60;;;;;;5051275;28;20025;-71
2021/10/05 03:07:32;;;;;;;19.17;11.93;;;333.50;2329.60;;;;;;5051067;28;20017;-70
2021/10/05 03:09:58;;;;;;;18.70;13.23;;;333.50;2329.60;;;;;;5050740;28;20017;-70
2021/10/05 03:12:26;;;;;;;22.98;13.73;;;333.50;2329.60;;;;;;5033313;28;20367;-70
2021/10/05 03:14:51;;;;;;;18.40;12.95;;;333.40;2329.60;;;;;;5048783;28;20017;-70
2021/10/05 03:17:17;;;;;;;18.13;12.07;;;333.40;2329.60;;;;;;5042650;28;20033;-70
2021/10/05 03:19:43;;;;;;;20.38;13.02;;;333.50;2329.60;;;;;;5051033;28;20472;-70
2021/10/05 03:22:09;;;;;;;18.30;13.10;;;333.40;2329.60;;;;;;5047845;28;20353;-70
2021/10/05 03:24:35;;;;;;;15.57;12.77;;;333.40;2329.60;;;;;;5050218;28;20122;-70
2021/10/05 03:27:00;;;;;;;16.23;11.60;;;333.40;2329.60;;;;;;5049412;28;20503;-70
2021/10/05 03:29:26;;;;;;;16.77;12.77;;;333.40;2329.60;;;;;;5049853;28;20115;-69
2021/10/05 03:31:52;;;;;;;16.35;11.63;;;333.40;2329.60;;;;;;5049617;28;20151;-70
2021/10/05 03:34:18;;;;;;;24.52;13.32;;;333.40;2329.60;;;;;;5051890;28;20045;-70
2021/10/05 03:36:44;;;;;;;17.50;11.32;;;333.50;2329.60;;;;;;5033115;28;20092;-70
2021/10/05 03:39:09;;;;;;;23.33;11.25;;;333.40;2329.60;;;;;;5050784;28;20032;-70
2021/10/05 03:41:35;;;;;;;19.35;12.15;;;333.50;2329.60;;;;;;5033351;28;20380;-70
2021/10/05 03:44:01;;;;;;;16.17;11.10;;;333.50;2329.60;;;;;;5032107;28;20784;-70
2021/10/05 03:46:27;;;;;;;15.80;11.80;;;333.50;2329.60;;;;;;5046255;28;20037;-70
2021/10/05 03:48:53;;;;;;;19.75;12.35;;;333.50;2329.60;;;;;;5023736;28;20025;-70
2021/10/05 03:51:19;;;;;;;18.90;11.68;;;333.50;2329.60;;;;;;5032824;28;20048;-70
2021/10/05 03:53:45;;;;;;;16.23;11.65;;;333.50;2329.60;;;;;;5032271;28;20025;-69
2021/10/05 03:56:11;;;;;;;16.13;11.68;;;333.40;2329.60;;;;;;5032454;28;20487;-71
2021/10/05 03:58:36;;;;;;;19.10;10.98;;;333.50;2329.60;;;;;;5040147;28;20005;-71
2021/10/05 04:01:04;;;;;;;14.25;11.25;;;333.50;2329.60;;;;;;5074813;28;20020;-70
2021/10/05 04:03:31;;;;;;;20.17;11.35;;;333.50;2329.60;;;;;;5075237;28;20021;-71
2021/10/05 04:05:57;;;;;;;15.75;10.40;;;333.50;2329.60;;;;;;5041901;28;20040;-71
2021/10/05 04:08:23;;;;;;;17.85;11.75;;;333.50;2329.60;;;;;;5055286;28;20021;-70
2021/10/05 04:10:49;;;;;;;15.50;10.80;;;333.50;2329.60;;;;;;5056617;28;20043;-71
2021/10/05 04:13:16;;;;;;;15.40;11.00;;;333.50;2329.60;;;;;;5051479;28;20029;-71
2021/10/05 04:15:43;;;;;;;21.58;11.82;;;333.60;2329.60;;;;;;5051900;28;20104;-70
2021/10/05 04:18:09;;;;;;;14.93;10.38;;;333.60;2329.60;;;;;;5058206;28;20025;-71
2021/10/05 04:20:34;;;;;;;16.13;11.38;;;333.60;2329.60;;;;;;5058165;28;20032;-70
2021/10/05 04:23:00;;;;;;;13.90;10.90;;;333.60;2329.60;;;;;;5050848;28;20540;-70
2021/10/05 04:25:26;;;;;;;20.40;11.35;;;333.70;2329.60;;;;;;5051250;28;20480;-71
2021/10/05 04:27:52;;;;;;;17.92;11.75;;;333.70;2329.60;;;;;;5051194;28;20071;-70
2021/10/05 04:30:18;;;;;;;16.02;10.95;;;333.70;2329.60;;;;;;5050493;28;20498;-70
2021/10/05 04:32:44;;;;;;;14.13;11.32;;;333.60;2329.60;;;;;;5033051;28;20541;-71
2021/10/05 04:35:10;;;;;;;19.23;10.80;;;333.70;2329.60;;;;;;5051158;28;20029;-71
2021/10/05 04:37:36;;;;;;;12.60;9.85;;;333.60;2329.60;;;;;;5050528;28;20104;-71
2021/10/05 04:40:04;;;;;;;13.70;9.27;;;333.60;2329.60;;;;;;5051022;28;20017;-71
2021/10/05 04:42:30;;;;;;;12.35;9.32;;;333.50;2329.60;;;;;;5050289;28;20513;-71
2021/10/05 04:44:56;;;;;;;13.43;9.80;;;333.60;2329.60;;;;;;5040167;28;20025;-70
2021/10/05 04:47:21;;;;;;;15.63;10.60;;;333.60;2329.60;;;;;;5049691;28;20090;-71
2021/10/05 04:49:47;;;;;;;13.70;10.23;;;333.50;2329.60;;;;;;5050147;28;20091;-71
2021/10/05 04:52:13;;;;;;;13.77;9.35;;;333.50;2329.60;;;;;;5046279;28;20027;-71
2021/10/05 04:54:39;;;;;;;18.25;9.38;;;333.50;2329.60;;;;;;5049656;28;20408;-71
2021/10/05 04:57:04;;;;;;;17.98;9.52;;;333.50;2329.60;;;;;;5052131;28;20013;-71
2021/10/05 04:59:32;;;;;;;11.95;8.93;;;333.60;2329.60;;;;;;5053125;28;20025;-71
2021/10/05 05:01:57;;;;;;;16.20;9.68;;;333.60;2329.60;;;;;;5035558;28;20035;-71
2021/10/05 05:04:23;;;;;;;14.57;9.68;;;333.70;2329.60;;;;;;5050003;28;20025;-71
2021/10/05 05:06:49;;;;;;;14.30;9.70;;;333.70;2329.60;;;;;;5052473;28;20086;-71
2021/10/05 05:09:15;;;;;;;13.13;8.98;;;333.70;2329.60;;;;;;5052097;28;20483;-71
2021/10/05 05:11:40;;;;;;;15.27;8.52;;;333.70;2329.60;;;;;;5034092;28;20033;-71
2021/10/05 05:14:11;;;;;;;14.52;9.07;;;358.40;2329.60;;;;;;5033726;28;20029;-71
2021/10/05 05:16:39;;;;;;;12.13;9.00;;;333.70;2329.60;;;;;;5050364;28;20071;-70
2021/10/05 05:19:06;;;;;;;12.93;8.27;;;358.40;2329.60;;;;;;5053409;28;20086;-69
2021/10/05 05:21:32;;;;;;;12.10;7.90;;;358.40;2329.60;;;;;;5049520;28;20569;-70
2021/10/05 05:23:58;;;;;;;14.35;9.88;;;358.50;2329.60;;;;;;5049988;28;20055;-70
2021/10/05 05:26:24;;;;;;;12.45;8.65;;;358.50;2329.60;;;;;;5055124;28;20033;-70
2021/10/05 05:28:50;;;;;;;20.65;9.73;;;358.60;2329.60;;;;;;5046112;28;20464;-70
2021/10/05 05:31:16;;;;;;;14.25;9.40;;;358.60;2329.60;;;;;;5032065;28;20415;-70
2021/10/05 05:33:42;;;;;;;14.80;8.95;;;358.70;2329.60;;;;;;5041813;28;20113;-70
2021/10/05 05:36:08;;;;;;;14.93;8.63;;;358.80;2329.60;;;;;;5052658;28;20102;-70
2021/10/05 05:38:34;;;;;;;14.93;8.60;;;358.90;2329.60;;;;;;5052959;28;20436;-70
2021/10/05 05:41:00;;;;;;;13.70;8.70;;;359.00;2329.60;;;;;;5048975;28;20523;-70
2021/10/05 05:43:25;;;;;;;14.80;8.50;;;359.00;2329.60;;;;;;5052365;28;20031;-72
2021/10/05 05:45:51;;;;;;;12.52;8.75;;;359.10;2329.60;;;;;;5030250;28;20377;-70
2021/10/05 05:48:17;;;;;;;15.05;8.10;;;359.20;2329.60;;;;;;5052731;28;20716;-70
2021/10/05 05:50:44;;;;;;;12.35;9.25;;;359.30;2329.60;;;;;;5030433;28;20021;-70
2021/10/05 05:53:09;;;;;;;15.35;8.57;;;384.00;2329.60;;;;;;5029472;28;20040;-70
2021/10/05 05:55:35;;;;;;;15.20;7.60;;;384.20;2329.60;;;;;;5049122;28;20017;-70
2021/10/05 05:58:16;;;;;;;11.07;7.45;;;384.30;2329.60;;;;;;5049900;28;20023;-70
2021/10/05 06:00:44;;;;;;;9.18;7.85;;;384.40;2329.60;;;;;;5028077;28;20028;-70
2021/10/05 06:03:14;;;;;;;11.05;7.95;;;384.60;2329.60;;;;;;5052822;28;20047;-70
2021/10/05 06:05:40;;;;;;;14.90;7.78;;;384.80;2329.60;;;;;;5034689;28;20029;-70
2021/10/05 06:08:06;;;;;;;12.77;7.45;;;384.90;2329.60;;;;;;5062604;28;20422;-70
2021/10/05 06:10:32;;;;;;;14.02;8.52;;;409.70;2355.20;;;;;;5033876;28;20053;-71
2021/10/05 06:12:58;;;;;;;17.77;7.10;;;409.90;2355.20;;;;;;5051820;28;20056;-71
2021/10/05 06:15:25;;;;;;;12.07;7.72;;;410.10;2355.20;;;;;;5052110;28;20037;-71
2021/10/05 06:17:51;;;;;;;17.15;7.30;;;410.20;2355.20;;;;;;5051537;28;20051;-70
2021/10/05 06:20:22;;;;;;;11.05;6.95;;;410.40;2355.20;;;;;;5052253;28;20020;-71
2021/10/05 06:22:49;;;;;;;11.55;6.57;;;410.50;2355.20;;;;;;5052018;28;20383;-71
2021/10/05 06:25:22;;;;;;;16.25;7.30;;;435.30;2355.20;;;;;;5052038;28;20059;-70
2021/10/05 06:27:48;;;;;;;13.93;7.03;;;435.40;2355.20;;;;;;5045589;28;20025;-71
2021/10/05 06:30:16;;;;;;;13.18;7.68;;;435.50;2355.20;;;;;;5052128;28;20048;-71
2021/10/05 06:32:44;;;;;;;15.13;7.00;;;435.70;2355.20;;;;;;5034874;28;20048;-71
2021/10/05 06:35:11;;;;;;;13.30;7.13;;;435.80;2355.20;;;;;;5052423;28;20024;-71
2021/10/05 06:37:38;;;;;;;16.67;7.05;;;435.90;2355.20;;;;;;5033534;28;20021;-71
2021/10/05 06:40:05;;;;;;;14.57;7.45;;;436.00;2355.20;;;;;;5033886;28;20421;-71
2021/10/05 06:42:35;;;;;;;14.35;6.53;;;460.80;2380.80;;;;;;5051899;28;20025;-71
2021/10/05 06:45:03;;;;;;;14.18;6.82;;;460.80;2380.80;;;;;;5030556;28;20063;-71
2021/10/05 06:47:29;;;;;;;16.73;7.85;;;461.00;2380.80;;;;;;5051825;28;20498;-71
2021/10/05 06:49:55;;;;;;;12.25;7.50;;;461.10;2380.80;;;;;;5050102;28;20041;-71
2021/10/05 06:52:21;;;;;;;18.05;6.72;;;461.10;2380.80;;;;;;5051734;28;20456;-71
2021/10/05 06:54:47;;;;;;;15.48;7.00;;;461.30;2380.80;;;;;;5050994;28;20028;-70
2021/10/05 06:57:12;;;;;;;18.17;7.28;;;461.40;2380.80;;;;;;5050852;28;20025;-72
2021/10/05 06:59:38;;;;;;;20.35;7.32;;;461.50;2380.80;;;;;;5051648;28;20029;-71
2021/10/05 07:02:04;;;;;;;15.27;8.23;;;461.70;2380.80;;;;;;5051410;28;20039;-71
2021/10/05 07:04:29;;;;;;;14.80;7.88;;;486.40;2380.80;;;;;;5051680;28;20029;-71
2021/10/05 07:06:55;;;;;;;17.88;7.50;;;486.50;2380.80;;;;;;5049594;28;20434;-71
2021/10/05 07:09:21;;;;;;;12.90;6.60;;;486.70;2380.80;;;;;;5033665;28;20025;-71
2021/10/05 07:11:48;;;;;;;17.90;6.88;;;486.90;2380.80;;;;;;5050745;28;20103;-71
2021/10/05 07:14:13;;;;;;;17.73;7.32;;;487.00;2380.80;;;;;;5051453;28;20067;-72
2021/10/05 07:16:39;;;;;;;22.67;6.20;;;487.00;2380.80;;;;;;5050328;28;20048;-71
2021/10/05 07:19:05;;;;;;;22.08;7.25;;;487.20;2380.80;;;;;;5049032;28;20037;-71
2021/10/05 07:21:31;;;;;;;28.83;7.70;;;512.00;2380.80;;;;;;5049461;28;20028;-72
2021/10/05 07:23:56;;;;;;;23.25;7.80;;;512.20;2380.80;;;;;;5051180;28;20438;-72
2021/10/05 07:26:22;;;;;;;25.23;8.27;;;512.20;2380.80;;;;;;5049470;28;20094;-71
2021/10/05 07:28:48;;;;;;;46.83;9.32;;;512.30;2380.80;;;;;;5024668;28;20029;-71
2021/10/05 07:31:14;;;;;;;23.65;8.20;;;512.30;2380.80;;;;;;5050931;28;20025;-71
2021/10/05 07:33:40;;;;;;;18.83;7.53;;;512.40;2380.80;;;;;;5048103;28;20021;-72
2021/10/05 07:36:05;;;;;;;18.92;7.25;;;512.40;2380.80;;;;;;5050871;28;20061;-72
2021/10/05 07:38:31;;;;;;;17.70;9.00;;;512.50;2355.20;;;;;;5050919;28;20082;-72
2021/10/05 07:40:57;;;;;;;14.30;7.18;;;512.70;2329.60;;;;;;5051396;28;20060;-71
2021/10/05 07:43:23;;;;;;;31.73;8.60;;;512.90;2304.00;;;;;;5049969;28;20029;-73
2021/10/05 07:45:52;;;;;;;20.98;7.53;;;537.60;2329.60;;;;;;5050906;28;20037;-72
2021/10/05 07:48:18;;;;;;;11.00;7.28;;;537.90;2304.00;;;;;;5049540;28;20139;-72
2021/10/05 07:50:44;;;;;;;24.90;7.70;;;538.10;2304.00;;;;;;5048682;28;20503;-72
2021/10/05 07:53:09;;;;;;;18.98;7.88;;;538.20;2252.80;;;;;;5049119;28;20044;-72
2021/10/05 07:55:35;;;;;;;17.00;7.57;;;538.40;2252.80;;;;;;5030675;28;20111;-72
2021/10/05 07:58:01;;;;;;;13.52;7.45;;;538.40;2227.20;;;;;;5041445;28;20021;-72
2021/10/05 08:00:28;;;;;;;18.83;7.90;;;538.50;2201.60;;;;;;5045825;28;20483;-72
2021/10/05 08:02:54;;;;;;;12.73;7.43;;;563.40;2227.20;;;;;;5030406;28;20079;-72
2021/10/05 08:05:20;;;;;;;18.35;7.47;;;563.60;2201.60;;;;;;5048782;28;20033;-72
2021/10/05 08:07:54;;;;;;;15.40;7.70;;;563.80;2176.00;;;;;;5030801;28;20025;-72
2021/10/05 08:10:20;;;;;;;19.23;7.18;;;563.80;2150.40;;;;;;5046039;28;20033;-72
2021/10/05 08:12:45;;;;;;;24.67;6.53;;;563.90;2124.80;;;;;;5048957;28;20033;-72
2021/10/05 08:15:11;;;;;;;20.83;7.85;;;564.00;2099.20;;;;;;5033522;28;20086;-72
2021/10/05 08:17:38;;;;;;;25.25;7.15;;;588.80;2073.60;;;;;;5047545;28;20471;-72
2021/10/05 08:20:05;;;;;;;25.20;8.93;;;589.00;2073.60;;;;;;5051268;28;20426;-72
2021/10/05 08:22:31;;;;;;;31.17;8.00;;;588.90;2048.00;;;;;;5050938;28;20028;-72
2021/10/05 08:24:57;;;;;;;20.77;6.85;;;589.00;2048.00;;;;;;5045780;28;20079;-72
2021/10/05 08:27:22;;;;;;;21.48;7.38;;;589.00;2022.40;;;;;;5030539;28;20028;-72
2021/10/05 08:29:49;;;;;;;28.60;7.90;;;589.20;2022.40;;;;;;5030388;28;20108;-72
2021/10/05 08:32:15;;;;;;;17.00;6.47;;;589.20;1996.80;;;;;;5048788;28;20041;-72
2021/10/05 08:34:41;;;;;;;16.13;6.75;;;589.40;1971.20;;;;;;5061458;28;20020;-72
2021/10/05 08:37:07;;;;;;;19.10;7.20;;;589.50;1971.20;;;;;;5071685;28;20041;-72
2021/10/05 08:39:34;;;;;;;18.95;6.97;;;614.40;1945.60;;;;;;5048099;28;20021;-72
2021/10/05 08:42:01;;;;;;;12.88;7.07;;;614.50;1920.00;;;;;;5034316;28;20026;-72
2021/10/05 08:44:27;;;;;;;23.67;8.20;;;614.70;1920.00;;;;;;5034191;28;20453;-72
2021/10/05 08:46:54;;;;;;;21.73;6.85;;;614.70;1894.40;;;;;;5046565;28;20502;-72
2021/10/05 08:49:21;;;;;;;18.50;6.88;;;614.80;1894.40;;;;;;5034212;28;20468;-72
2021/10/05 08:51:48;;;;;;;19.25;7.03;;;615.10;1868.80;;;;;;5050709;28;20054;-72
2021/10/05 08:54:14;;;;;;;29.10;6.78;;;615.30;1843.20;;;;;;5052032;28;20986;-72
2021/10/05 08:56:43;;;;;;;18.60;7.13;;;640.00;1817.60;;;;;;5051872;28;20071;-72
2021/10/05 08:59:09;;;;;;;30.20;7.97;;;640.30;1792.00;;;;;;5046804;28;20013;-72
2021/10/05 09:01:35;;;;;;;34.80;7.70;;;640.50;1766.40;;;;;;5051737;28;20025;-72
2021/10/05 09:04:03;;;;;;;21.83;7.75;;;640.50;1766.40;;;;;;5048771;28;20025;-72
2021/10/05 09:06:29;;;;;;;20.65;7.22;;;640.30;1766.40;;;;;;5050910;28;20013;-72
2021/10/05 09:08:55;;;;;;;18.85;6.72;;;640.50;1740.80;;;;;;5034222;28;20173;-72
2021/10/05 09:11:24;;;;;;;18.75;7.40;;;640.70;1715.20;;;;;;5048594;28;20482;-72
2021/10/05 09:13:53;;;;;;;18.23;6.65;;;665.70;1715.20;;;;;;5032706;28;20392;-73
2021/10/05 09:16:25;;;;;;;26.13;7.53;;;665.60;1715.20;;;;;;5048324;28;20099;-72
2021/10/05 09:18:55;;;;;;;19.33;7.88;;;665.90;1689.60;;;;;;5034961;28;20067;-72
2021/10/05 09:21:22;;;;;;;19.35;7.07;;;666.30;1664.00;;;;;;5053765;28;20487;-72
2021/10/05 09:24:00;;;;;;;25.25;7.95;;;666.20;1638.40;;;;;;5053160;28;20033;-72
2021/10/05 09:26:41;;;;;;;19.60;7.30;;;666.30;1664.00;;;;;;5031975;28;20550;-72
2021/10/05 09:29:28;;;;;;;31.92;8.30;;;666.30;1638.40;;;;;;5049128;28;20033;-73
2021/10/05 09:32:09;;;;;;;21.55;7.03;;;666.10;1638.40;;;;;;5051651;28;20052;-73
2021/10/05 09:34:44;;;;;;;28.75;9.43;;;666.20;1612.80;;;;;;5035366;28;20032;-73
2021/10/05 09:37:13;;;;;;;9.80;6.25;;;666.10;1612.80;;;;;;5035272;28;20476;-73
2021/10/05 09:40:03;;;;;;;15.20;7.45;;;666.10;1612.80;;;;;;5053088;28;20232;-72
2021/10/05 09:42:36;;;;;;;24.95;7.15;;;666.30;1587.20;;;;;;5051556;28;20476;-72
2021/10/05 09:45:34;;;;;;;24.92;7.35;;;691.40;1587.20;;;;;;5052254;28;20079;-72
2021/10/05 09:48:08;;;;;;;17.40;7.50;;;691.40;1561.60;;;;;;4974866;28;20097;-72
2021/10/05 09:50:35;;;;;;;19.15;7.18;;;691.90;1536.00;;;;;;4973272;28;20033;-72
2021/10/05 09:53:08;;;;;;;22.60;8.00;;;691.90;1536.00;;;;;;4991522;28;20081;-72
2021/10/05 09:55:42;;;;;;;28.08;7.93;;;691.90;1510.40;;;;;;4990529;28;20117;-73
2021/10/05 09:58:09;;;;;;;16.65;6.65;;;691.90;1510.40;;;;;;4974676;28;20078;-72
2021/10/05 10:00:55;;;;;;;17.30;7.65;;;691.90;1484.80;;;;;;4988229;28;20031;-72
2021/10/05 10:03:21;;;;;;;19.33;8.80;;;692.00;1484.80;;;;;;4990947;28;20029;-72
2021/10/05 10:05:47;;;;;;;21.58;7.78;;;691.80;1510.40;;;;;;4974973;28;20031;-72
2021/10/05 10:08:13;;;;;;;19.65;6.95;;;691.90;1484.80;;;;;;4985167;28;20110;-72
2021/10/05 10:10:39;;;;;;;24.48;8.93;;;692.00;1484.80;;;;;;4984957;28;20070;-72
2021/10/05 10:13:10;;;;;;;20.50;6.57;;;717.10;1484.80;;;;;;4991031;28;20081;-72
2021/10/05 10:15:41;;;;;;;21.63;6.38;;;717.00;1459.20;;;;;;4985955;28;20029;-73
2021/10/05 10:18:11;;;;;;;15.60;6.40;;;716.80;1484.80;;;;;;4990513;28;20054;-72
2021/10/05 10:20:39;;;;;;;17.00;6.22;;;717.00;1484.80;;;;;;4989324;28;20091;-72
2021/10/05 10:23:21;;;;;;;39.03;7.10;;;717.20;1484.80;;;;;;4971005;28;20026;-72
2021/10/05 10:25:55;;;;;;;21.42;7.20;;;717.40;1459.20;;;;;;5049278;28;20033;-72
2021/10/05 10:28:38;;;;;;;22.20;7.82;;;717.70;1459.20;;;;;;5052088;28;20486;-72
2021/10/05 10:31:10;;;;;;;24.88;7.80;;;742.90;1459.20;;;;;;5031063;28;20049;-72
2021/10/05 10:33:46;;;;;;;26.77;6.97;;;742.60;1433.60;;;;;;5030188;28;20028;-73
2021/10/05 10:36:13;;;;;;;20.48;7.32;;;717.50;1433.60;;;;;;5049946;28;20024;-73
2021/10/05 10:38:42;;;;;;;20.88;7.80;;;742.40;1459.20;;;;;;5030594;28;20060;-72
2021/10/05 10:41:20;;;;;;;15.48;7.13;;;742.40;1459.20;;;;;;5031486;28;20024;-72
2021/10/05 10:44:01;;;;;;;16.70;6.65;;;742.70;1433.60;;;;;;5033014;28;20036;-72
2021/10/05 10:46:30;;;;;;;22.15;7.38;;;742.70;1433.60;;;;;;5047941;28;20029;-73
2021/10/05 10:48:57;;;;;;;18.05;7.78;;;717.60;1433.60;;;;;;5049635;28;20032;-72
2021/10/05 10:51:28;;;;;;;21.65;6.85;;;742.60;1433.60;;;;;;5049905;28;20029;-72
2021/10/05 10:53:56;;;;;;;14.57;7.03;;;742.40;1433.60;;;;;;5029503;28;20029;-73
2021/10/05 10:56:34;;;;;;;16.90;6.75;;;742.50;1433.60;;;;;;5048856;28;20104;-73
2021/10/05 10:59:07;;;;;;;18.50;7.97;;;742.70;1408.00;;;;;;5030261;28;20116;-72
2021/10/05 11:01:47;;;;;;;31.38;8.05;;;742.90;1408.00;;;;;;5049703;28;20055;-73
2021/10/05 11:04:18;;;;;;;21.17;7.53;;;743.00;1408.00;;;;;;5033536;28;20025;-72
2021/10/05 11:06:49;;;;;;;25.02;8.35;;;742.60;1408.00;;;;;;5051386;28;20020;-73
2021/10/05 11:09:15;;;;;;;29.02;7.72;;;742.70;1408.00;;;;;;5051994;28;20040;-72
2021/10/05 11:11:49;;;;;;;28.42;7.75;;;743.30;1382.40;;;;;;5033435;28;20374;-72
2021/10/05 11:14:37;;;;;;;18.85;7.63;;;768.20;1356.80;;;;;;5042538;28;20053;-73
2021/10/05 11:17:10;;;;;;;27.88;7.93;;;768.30;1356.80;;;;;;5027576;28;20055;-72
2021/10/05 11:19:41;;;;;;;28.98;8.48;;;768.10;1356.80;;;;;;5030086;28;20032;-72
2021/10/05 11:22:13;;;;;;;20.17;7.82;;;768.70;1331.20;;;;;;5023952;28;20029;-73
2021/10/05 11:24:41;;;;;;;31.40;7.68;;;768.60;1331.20;;;;;;5032179;28;20396;-73
2021/10/05 11:27:09;;;;;;;30.00;7.55;;;768.40;1331.20;;;;;;5050132;28;20028;-72
2021/10/05 11:29:36;;;;;;;22.52;8.13;;;793.60;1331.20;;;;;;5048597;28;20033;-73
2021/10/05 11:32:04;;;;;;;31.35;7.18;;;768.90;1305.60;;;;;;5031328;28;20028;-72
2021/10/05 11:34:36;;;;;;;37.72;9.05;;;768.40;1305.60;;;;;;5047148;28;20040;-72
2021/10/05 11:37:05;;;;;;;37.88;8.57;;;768.30;1331.20;;;;;;5031278;28;20021;-71
2021/10/05 11:39:31;;;;;;;32.97;8.60;;;768.60;1331.20;;;;;;5038377;28;20040;-71
2021/10/05 11:42:09;;;;;;;27.92;8.48;;;768.30;1331.20;;;;;;5049448;28;20029;-71
2021/10/05 11:45:08;;;;;;;39.40;10.18;;;768.00;1356.80;;;;;;5049847;28;20095;-72
2021/10/05 11:47:33;;;;;;;32.40;8.20;;;768.30;1331.20;;;;;;4948330;29;20054;-72
2021/10/05 11:50:08;;;;;;;23.70;7.70;;;768.60;1331.20;;;;;;4934241;29;20035;-72
2021/10/05 11:52:39;;;;;;;31.40;7.93;;;768.30;1331.20;;;;;;4933548;29;20038;-72
2021/10/05 11:55:05;;;;;;;21.67;8.48;;;768.10;1331.20;;;;;;4947956;29;20134;-72
2021/10/05 11:57:37;;;;;;;24.42;7.50;;;768.00;1356.80;;;;;;4948778;29;20131;-72
2021/10/05 12:00:10;;;;;;;23.23;8.05;;;768.30;1331.20;;;;;;4948987;29;20114;-72
2021/10/05 12:02:40;;;;;;;26.83;9.45;;;793.60;1331.20;;;;;;4949555;28;20922;-73
2021/10/05 12:05:07;;;;;;;18.05;7.57;;;768.30;1331.20;;;;;;4948064;28;20059;-72
2021/10/05 12:07:37;;;;;;;24.35;8.00;;;768.20;1331.20;;;;;;4952139;28;20027;-72
2021/10/05 12:10:06;;;;;;;27.60;7.72;;;768.10;1331.20;;;;;;4951694;29;20023;-72
2021/10/05 12:12:37;;;;;;;32.40;7.68;;;768.00;1331.20;;;;;;4950829;29;20028;-72